Time;durP1;ratioP1;P1;durP2;ratioP2;P2;SDS_P1;SDS_P2;PMS_P1;PMS_P2;Temp;Humidity;BMP_temperature;BMP_pressure;BME280_temperature;BME280_humidity;BME280_pressure;Samples;Min_cycle;Max_cycle;Signal;HPM_P1;HPM_P2
2023/08/08 00:01:36;;;;;;;0.57;0.55;;;;;;;16.86;100.00;100948.97;5017425;28;20042;-58
2023/08/08 00:04:02;;;;;;;1.65;0.32;;;;;;;16.90;100.00;100939.41;5013218;28;20135;-58
2023/08/08 00:06:27;;;;;;;2.83;0.22;;;;;;;16.92;100.00;100940.03;5020015;28;20029;-60
2023/08/08 00:08:52;;;;;;;0.30;0.08;;;;;;;16.91;100.00;100935.69;5020464;28;20040;-60
2023/08/08 00:11:18;;;;;;;3.97;0.20;;;;;;;16.86;100.00;100938.25;5016374;28;20893;-60
2023/08/08 00:13:43;;;;;;;0.13;0.13;;;;;;;16.89;100.00;100932.44;5018566;28;20034;-60
2023/08/08 00:16:08;;;;;;;0.95;0.03;;;;;;;16.87;100.00;100923.81;5016207;28;20661;-60
2023/08/08 00:18:33;;;;;;;1.27;0.85;;;;;;;16.79;100.00;100930.25;5014498;28;20044;-60
2023/08/08 00:20:59;;;;;;;4.18;0.10;;;;;;;16.70;100.00;100927.03;5018005;28;20033;-58
2023/08/08 00:23:24;;;;;;;0.45;0.45;;;;;;;16.56;100.00;100918.28;5026968;28;20030;-57
2023/08/08 00:25:50;;;;;;;0.82;0.10;;;;;;;16.56;100.00;100912.13;5021860;28;20030;-59
2023/08/08 00:28:17;;;;;;;2.13;0.57;;;;;;;16.44;100.00;100919.22;5026061;28;20040;-58
2023/08/08 00:30:42;;;;;;;0.10;0.10;;;;;;;16.43;100.00;100910.38;5016129;28;20030;-59
2023/08/08 00:33:08;;;;;;;1.45;0.35;;;;;;;16.38;100.00;100915.56;5016123;28;20029;-61
2023/08/08 00:35:33;;;;;;;0.70;0.10;;;;;;;16.31;100.00;100909.44;5023191;28;20132;-59
2023/08/08 00:37:58;;;;;;;1.95;0.63;;;;;;;16.18;100.00;100918.38;5015860;28;20394;-60
2023/08/08 00:40:24;;;;;;;1.48;0.00;;;;;;;16.13;100.00;100923.56;5013772;28;20034;-60
2023/08/08 00:42:49;;;;;;;3.47;0.00;;;;;;;16.07;100.00;100924.44;5013326;28;20135;-59
2023/08/08 00:45:14;;;;;;;2.97;0.20;;;;;;;15.94;100.00;100925.34;5025175;28;20033;-60
2023/08/08 00:47:40;;;;;;;1.55;0.50;;;;;;;16.03;100.00;100923.22;5018303;28;20037;-56
2023/08/08 00:50:06;;;;;;;0.73;0.05;;;;;;;15.94;100.00;100919.19;5023138;28;20029;-60
2023/08/08 00:52:31;;;;;;;3.47;0.17;;;;;;;15.83;100.00;100913.50;5027005;28;20033;-58
2023/08/08 00:54:57;;;;;;;1.25;0.20;;;;;;;15.87;100.00;100913.88;5014368;28;20406;-61
2023/08/08 00:57:23;;;;;;;4.32;0.25;;;;;;;15.78;100.00;100910.66;5019539;28;20456;-58
2023/08/08 00:59:48;;;;;;;0.35;0.30;;;;;;;15.85;100.00;100906.09;5023225;28;20068;-59
2023/08/08 01:02:14;;;;;;;2.72;0.73;;;;;;;15.87;100.00;100900.50;5019682;28;20146;-60
2023/08/08 01:04:40;;;;;;;1.15;0.57;;;;;;;15.77;100.00;100895.63;5018165;28;20308;-60
2023/08/08 01:07:22;;;;;;;1.02;0.10;;;;;;;15.68;100.00;100894.22;5016424;28;20038;-59
2023/08/08 01:10:01;;;;;;;0.50;0.10;;;;;;;15.54;100.00;100897.97;5016132;28;20524;-58
2023/08/08 01:12:27;;;;;;;1.95;0.00;;;;;;;15.24;100.00;100902.03;5011573;28;20033;-59
2023/08/08 01:14:53;;;;;;;0.70;0.70;;;;;;;15.01;100.00;100891.03;5020932;28;20055;-58
2023/08/08 01:17:21;;;;;;;1.13;0.17;;;;;;;14.83;100.00;100889.00;5024168;28;20049;-58
2023/08/08 01:19:46;;;;;;;0.43;0.10;;;;;;;14.71;100.00;100894.16;5020882;28;20491;-60
2023/08/08 01:22:24;;;;;;;0.38;0.10;;;;;;;14.53;100.00;100900.16;5020179;28;20033;-61
2023/08/08 01:24:50;;;;;;;1.02;0.00;;;;;;;14.66;100.00;100893.13;5028768;28;20464;-60
2023/08/08 01:27:16;;;;;;;1.65;0.10;;;;;;;14.69;100.00;100890.91;5027418;28;20492;-59
2023/08/08 01:29:41;;;;;;;0.30;0.05;;;;;;;14.75;100.00;100897.25;5023063;28;20033;-60
2023/08/08 01:32:08;;;;;;;3.95;0.77;;;;;;;14.89;100.00;100895.34;5023712;28;20143;-58
2023/08/08 01:34:34;;;;;;;0.40;0.22;;;;;;;14.85;100.00;100896.81;5018433;28;20037;-61
2023/08/08 01:37:18;;;;;;;0.90;0.43;;;;;;;14.94;100.00;100899.03;5022167;28;20064;-60
2023/08/08 01:39:44;;;;;;;0.13;0.13;;;;;;;15.00;100.00;100886.72;5016576;28;20042;-60
2023/08/08 01:42:12;;;;;;;0.10;0.08;;;;;;;14.94;100.00;100884.88;5019465;28;20494;-58
2023/08/08 01:44:39;;;;;;;3.33;0.73;;;;;;;14.99;100.00;100887.72;5020088;28;20399;-60
2023/08/08 01:47:05;;;;;;;0.10;0.10;;;;;;;15.05;100.00;100873.56;5014209;28;20497;-60
2023/08/08 01:49:30;;;;;;;1.55;0.52;;;;;;;15.01;100.00;100881.16;5016330;28;20037;-58
2023/08/08 01:51:55;;;;;;;0.10;0.00;;;;;;;15.09;100.00;100893.44;5015751;28;20049;-60
2023/08/08 01:54:21;;;;;;;4.00;0.28;;;;;;;15.15;100.00;100891.78;5015835;28;20086;-61
2023/08/08 01:56:46;;;;;;;0.30;0.20;;;;;;;15.17;100.00;100889.72;5023714;28;20585;-60
2023/08/08 01:59:12;;;;;;;0.17;0.10;;;;;;;15.27;100.00;100882.09;5025006;28;20136;-61
2023/08/08 02:01:37;;;;;;;0.10;0.10;;;;;;;15.34;100.00;100874.88;5021833;28;20498;-57
2023/08/08 02:04:02;;;;;;;3.40;0.38;;;;;;;15.31;100.00;100886.00;5021747;28;20034;-58
2023/08/08 02:06:28;;;;;;;0.15;0.10;;;;;;;15.33;100.00;100883.91;5028054;28;20029;-58
2023/08/08 02:08:53;;;;;;;0.00;0.00;;;;;;;15.32;100.00;100876.94;5021777;28;20029;-58
2023/08/08 02:11:18;;;;;;;2.35;0.22;;;;;;;15.31;100.00;100867.28;5023325;28;20036;-60
2023/08/08 02:13:44;;;;;;;1.20;0.10;;;;;;;15.34;100.00;100872.19;5018462;28;20030;-60
2023/08/08 02:16:09;;;;;;;0.10;0.10;;;;;;;15.32;100.00;100876.94;5022900;28;20108;-59
2023/08/08 02:18:36;;;;;;;0.50;0.00;;;;;;;15.29;100.00;100873.88;5021392;28;20172;-60
2023/08/08 02:21:01;;;;;;;0.65;0.65;;;;;;;15.25;100.00;100862.78;5022345;28;20099;-60
2023/08/08 02:23:26;;;;;;;0.30;0.30;;;;;;;15.17;100.00;100871.84;5024704;28;20116;-58
2023/08/08 02:25:52;;;;;;;1.85;0.20;;;;;;;15.09;100.00;100873.94;5025178;28;20126;-61
2023/08/08 02:28:17;;;;;;;0.20;0.00;;;;;;;14.98;100.00;100870.91;5020570;28;20369;-60
2023/08/08 02:30:42;;;;;;;0.55;0.17;;;;;;;14.96;100.00;100880.97;5017071;28;20274;-58
2023/08/08 02:33:07;;;;;;;0.35;0.10;;;;;;;15.00;100.00;100876.84;5013733;28;20057;-60
2023/08/08 02:35:33;;;;;;;0.80;0.00;;;;;;;15.03;100.00;100873.75;5017095;28;20111;-60
2023/08/08 02:37:58;;;;;;;0.75;0.30;;;;;;;15.05;100.00;100869.03;5012493;28;20026;-60
2023/08/08 02:40:24;;;;;;;1.88;0.10;;;;;;;15.03;100.00;100859.59;5019149;28;20033;-58
2023/08/08 02:42:49;;;;;;;0.20;0.20;;;;;;;15.07;100.00;100871.47;5020355;28;20021;-60
2023/08/08 02:45:15;;;;;;;0.90;0.10;;;;;;;15.06;100.00;100877.84;5022005;28;20022;-61
2023/08/08 02:47:40;;;;;;;0.43;0.00;;;;;;;15.14;100.00;100877.63;5018478;28;20037;-58
2023/08/08 02:50:06;;;;;;;1.15;0.13;;;;;;;15.10;100.00;100873.75;5017435;28;20570;-57
2023/08/08 02:52:31;;;;;;;1.75;0.08;;;;;;;15.19;100.00;100864.44;5015133;28;20033;-59
2023/08/08 02:54:57;;;;;;;1.40;0.05;;;;;;;15.28;100.00;100865.00;5019014;28;20033;-58
2023/08/08 02:57:22;;;;;;;0.98;0.10;;;;;;;15.29;100.00;100864.00;5018240;28;20415;-60
2023/08/08 02:59:48;;;;;;;0.95;0.05;;;;;;;15.32;100.00;100866.25;5015822;28;20043;-59
2023/08/08 03:02:13;;;;;;;1.17;0.00;;;;;;;15.39;100.00;100852.88;5016600;28;20102;-57
2023/08/08 03:04:38;;;;;;;0.10;0.10;;;;;;;15.26;100.00;100865.25;5017116;28;20044;-59
2023/08/08 03:07:04;;;;;;;0.10;0.00;;;;;;;15.23;100.00;100873.69;5019412;28;20048;-60
2023/08/08 03:09:30;;;;;;;0.30;0.15;;;;;;;15.16;100.00;100872.88;5022415;28;20068;-58
2023/08/08 03:11:55;;;;;;;2.10;0.35;;;;;;;15.11;100.00;100879.91;5022119;28;20021;-60
2023/08/08 03:14:21;;;;;;;1.15;0.10;;;;;;;15.02;100.00;100871.28;5018034;28;20403;-60
2023/08/08 03:16:46;;;;;;;1.25;0.10;;;;;;;14.89;100.00;100872.16;5016317;28;20355;-60
2023/08/08 03:19:11;;;;;;;0.73;0.32;;;;;;;14.84;100.00;100879.97;5013745;28;20038;-60
2023/08/08 03:21:37;;;;;;;1.33;0.32;;;;;;;14.87;100.00;100881.41;5020556;28;20033;-58
2023/08/08 03:24:02;;;;;;;1.90;0.20;;;;;;;14.78;100.00;100878.13;5027114;28;20135;-60
2023/08/08 03:26:27;;;;;;;0.55;0.17;;;;;;;14.70;100.00;100870.34;5022782;28;20037;-59
2023/08/08 03:28:53;;;;;;;0.38;0.00;;;;;;;14.57;100.00;100880.03;5024150;28;20037;-60
2023/08/08 03:31:19;;;;;;;1.15;0.08;;;;;;;14.55;100.00;100884.75;5019038;28;20033;-60
2023/08/08 03:33:45;;;;;;;0.20;0.00;;;;;;;14.49;100.00;100882.88;5022890;28;20033;-60
2023/08/08 03:36:10;;;;;;;0.00;0.00;;;;;;;14.49;100.00;100877.53;5021692;28;20025;-60
2023/08/08 03:38:37;;;;;;;0.20;0.10;;;;;;;14.48;100.00;100867.06;5020655;28;20114;-60
2023/08/08 03:41:03;;;;;;;1.90;0.20;;;;;;;14.36;100.00;100880.22;5016209;28;20109;-60
2023/08/08 03:43:28;;;;;;;0.65;0.20;;;;;;;14.27;100.00;100886.78;5019407;28;20525;-59
2023/08/08 03:45:54;;;;;;;1.73;0.10;;;;;;;14.19;100.00;100888.63;5015470;28;20434;-59
2023/08/08 03:48:19;;;;;;;0.75;0.10;;;;;;;14.19;100.00;100880.63;5020853;28;20040;-60
2023/08/08 03:50:46;;;;;;;3.30;0.15;;;;;;;14.22;100.00;100884.72;5015142;28;20032;-61
2023/08/08 03:53:12;;;;;;;0.40;0.38;;;;;;;14.20;100.00;100881.47;5013585;28;20034;-59
2023/08/08 03:55:37;;;;;;;0.17;0.08;;;;;;;14.16;100.00;100881.03;5015339;28;20168;-57
2023/08/08 03:58:03;;;;;;;3.33;0.10;;;;;;;14.25;100.00;100884.34;5018796;28;20045;-60
2023/08/08 04:00:28;;;;;;;0.10;0.10;;;;;;;14.42;100.00;100884.72;5017719;28;20449;-59
2023/08/08 04:02:53;;;;;;;0.05;0.00;;;;;;;14.26;100.00;100880.63;5020008;28;20049;-58
2023/08/08 04:05:19;;;;;;;1.10;0.10;;;;;;;14.38;100.00;100879.00;5021791;28;20041;-60
2023/08/08 04:07:44;;;;;;;0.38;0.38;;;;;;;14.43;100.00;100878.38;5017321;28;20116;-60
2023/08/08 04:10:10;;;;;;;0.95;0.17;;;;;;;14.39;100.00;100877.13;5013220;28;20037;-60
2023/08/08 04:12:35;;;;;;;2.65;0.13;;;;;;;14.23;100.00;100867.72;5019991;28;20079;-59
2023/08/08 04:15:01;;;;;;;0.20;0.20;;;;;;;14.09;100.00;100871.38;5017739;28;20152;-54
2023/08/08 04:17:26;;;;;;;0.00;0.00;;;;;;;14.05;100.00;100870.19;5015083;28;20049;-60
2023/08/08 04:19:52;;;;;;;0.17;0.10;;;;;;;14.06;100.00;100863.81;5018759;28;20045;-60
2023/08/08 04:22:18;;;;;;;0.35;0.10;;;;;;;14.00;100.00;100872.63;5014938;28;20041;-58
2023/08/08 04:24:43;;;;;;;0.15;0.05;;;;;;;14.03;100.00;100867.69;5025697;28;20033;-60
2023/08/08 04:27:08;;;;;;;1.42;0.03;;;;;;;14.11;100.00;100864.81;5020634;28;20487;-59
2023/08/08 04:29:34;;;;;;;0.22;0.20;;;;;;;14.10;100.00;100868.53;5022431;28;20037;-60
2023/08/08 04:31:59;;;;;;;0.20;0.10;;;;;;;13.75;100.00;100875.88;5016314;28;20387;-58
2023/08/08 04:34:25;;;;;;;0.40;0.10;;;;;;;13.87;100.00;100886.75;5018119;28;20380;-59
2023/08/08 04:36:50;;;;;;;0.30;0.00;;;;;;;13.87;100.00;100876.09;5017672;28;20073;-59
2023/08/08 04:39:15;;;;;;;0.28;0.28;;;;;;;13.90;100.00;100876.50;5011840;28;20050;-56
2023/08/08 04:41:41;;;;;;;0.20;0.10;;;;;;;13.92;100.00;100877.13;5021550;28;20022;-58
2023/08/08 04:44:06;;;;;;;2.28;0.10;;;;;;;14.13;100.00;100875.31;5026077;28;20033;-58
2023/08/08 04:46:31;;;;;;;1.55;0.10;;;;;;;14.22;100.00;100874.06;5022696;28;20057;-57
2023/08/08 04:48:56;;;;;;;1.40;0.10;;;;;;;14.34;100.00;100875.09;5022137;28;20110;-60
2023/08/08 04:51:22;;;;;;;2.30;0.38;;;;;;;14.48;100.00;100857.25;5018810;28;20108;-57
2023/08/08 04:53:47;;;;;;;0.93;0.35;;;;;;;14.58;100.00;100862.16;5022817;28;20104;-56
2023/08/08 04:56:12;;;;;;;7.00;0.30;;;;;;;14.62;100.00;100860.72;5024147;28;20149;-59
2023/08/08 04:58:38;;;;;;;1.45;0.20;;;;;;;14.59;100.00;100856.63;5018183;28;20396;-57
2023/08/08 05:01:03;;;;;;;0.75;0.20;;;;;;;14.63;100.00;100864.22;5018501;28;20049;-57
2023/08/08 05:03:28;;;;;;;0.70;0.28;;;;;;;14.87;100.00;100860.03;5023353;28;20044;-57
2023/08/08 05:05:54;;;;;;;0.20;0.20;;;;;;;14.99;100.00;100861.03;5023875;28;20087;-58
2023/08/08 05:08:20;;;;;;;6.65;0.25;;;;;;;15.02;100.00;100869.47;5023422;28;20655;-57
2023/08/08 05:10:46;;;;;;;3.25;0.10;;;;;;;15.01;100.00;100872.31;5017117;28;20139;-58
2023/08/08 05:13:12;;;;;;;1.48;0.43;;;;;;;15.01;100.00;100870.47;5021943;28;20112;-58
2023/08/08 05:15:38;;;;;;;0.57;0.22;;;;;;;14.95;100.00;100862.50;5019223;28;20060;-56
2023/08/08 05:18:03;;;;;;;0.77;0.20;;;;;;;14.89;100.00;100863.31;5025986;28;20034;-57
2023/08/08 05:20:29;;;;;;;1.98;0.35;;;;;;;14.81;100.00;100861.69;5027421;28;20035;-57
2023/08/08 05:22:54;;;;;;;0.30;0.10;;;;;;;14.77;100.00;100855.16;5030652;28;20525;-59
2023/08/08 05:25:19;;;;;;;0.90;0.68;;;;;;;14.78;100.00;100851.44;5026004;28;20040;-59
2023/08/08 05:27:45;;;;;;;2.92;0.15;;;;;;;14.72;100.00;100852.28;5026859;28;20033;-58
2023/08/08 05:30:10;;;;;;;0.38;0.10;;;;;;;14.73;100.00;100843.25;5007355;28;20185;-59
2023/08/08 05:32:36;;;;;;;0.88;0.55;;;;;;;14.79;100.00;100853.91;5015918;28;20467;-59
2023/08/08 05:35:04;;;;;;;0.90;0.10;;;;;;;14.90;100.00;100848.97;5023034;28;20229;-59
2023/08/08 05:37:29;;;;;;;0.70;0.15;;;;;;;15.01;100.00;100846.44;5014116;28;20028;-58
2023/08/08 05:39:54;;;;;;;0.60;0.43;;;;;;;15.23;100.00;100838.13;5025891;28;20038;-56
2023/08/08 05:42:20;;;;;;;0.65;0.65;;;;;;;15.37;100.00;100829.03;5020004;28;20494;-57
2023/08/08 05:44:45;;;;;;;2.92;1.10;;;;;;;15.54;100.00;100828.50;5021685;28;20033;-57
2023/08/08 05:47:10;;;;;;;0.88;0.38;;;;;;;15.72;100.00;100830.47;5021434;28;20065;-58
2023/08/08 05:49:36;;;;;;;1.33;0.60;;;;;;;15.80;100.00;100825.69;5024643;28;20044;-58
2023/08/08 05:52:02;;;;;;;1.75;0.47;;;;;;;15.87;100.00;100825.63;5023009;28;20507;-57
2023/08/08 05:54:28;;;;;;;0.45;0.30;;;;;;;15.99;100.00;100825.75;5017260;28;20033;-57
2023/08/08 05:56:53;;;;;;;1.05;0.60;;;;;;;16.11;100.00;100829.38;5019186;28;20029;-57
2023/08/08 05:59:18;;;;;;;1.67;0.40;;;;;;;16.21;100.00;100828.84;5023595;28;20033;-59
2023/08/08 06:01:44;;;;;;;2.30;0.30;;;;;;;16.32;100.00;100826.28;5016719;28;20164;-59
2023/08/08 06:04:09;;;;;;;1.73;0.60;;;;;;;16.37;100.00;100833.66;5018004;28;20041;-56
2023/08/08 06:06:35;;;;;;;0.30;0.20;;;;;;;16.49;100.00;100833.72;5014262;28;20120;-57
2023/08/08 06:09:00;;;;;;;1.27;0.45;;;;;;;16.56;100.00;100840.66;5018028;28;20052;-56
2023/08/08 06:11:26;;;;;;;0.28;0.10;;;;;;;16.57;100.00;100849.50;5014871;28;20073;-58
2023/08/08 06:13:51;;;;;;;3.10;0.73;;;;;;;16.49;100.00;100847.13;5015127;28;20029;-57
2023/08/08 06:16:18;;;;;;;0.30;0.30;;;;;;;16.56;100.00;100842.53;5012604;28;20061;-55
2023/08/08 06:18:44;;;;;;;0.73;0.43;;;;;;;16.50;100.00;100848.78;5021181;28;20041;-57
2023/08/08 06:21:09;;;;;;;2.05;0.28;;;;;;;16.52;100.00;100849.34;5025379;28;20026;-56
2023/08/08 06:23:34;;;;;;;0.47;0.28;;;;;;;16.47;100.00;100841.16;5012242;28;20045;-58
2023/08/08 06:26:00;;;;;;;2.05;0.50;;;;;;;16.55;100.00;100841.72;5005212;28;20029;-56
2023/08/08 06:28:25;;;;;;;14.05;1.27;;;;;;;16.62;100.00;100838.13;5013826;28;20036;-55
2023/08/08 06:30:50;;;;;;;2.67;0.70;;;;;;;16.64;100.00;100846.78;5012007;28;20041;-55
2023/08/08 06:33:15;;;;;;;1.58;0.80;;;;;;;16.72;100.00;100841.94;5008786;28;20042;-52
2023/08/08 06:35:41;;;;;;;2.00;0.20;;;;;;;16.82;100.00;100841.44;5011976;28;20034;-56
2023/08/08 06:38:08;;;;;;;2.05;1.38;;;;;;;16.99;100.00;100844.34;5011579;28;20116;-57
2023/08/08 06:40:34;;;;;;;3.03;0.32;;;;;;;16.98;100.00;100834.66;5007292;28;20040;-57
2023/08/08 06:42:59;;;;;;;0.47;0.17;;;;;;;17.06;100.00;100839.72;5006277;28;20901;-56
2023/08/08 06:45:24;;;;;;;1.65;0.50;;;;;;;17.12;100.00;100836.16;5012585;28;20606;-55
2023/08/08 06:47:50;;;;;;;2.65;0.15;;;;;;;17.13;100.00;100824.38;5016827;28;20120;-54
2023/08/08 06:50:15;;;;;;;1.33;0.40;;;;;;;17.22;100.00;100828.38;5018499;28;20045;-57
2023/08/08 06:52:40;;;;;;;1.60;0.32;;;;;;;17.20;100.00;100832.34;5010863;28;20148;-55
2023/08/08 06:55:06;;;;;;;0.40;0.28;;;;;;;17.28;100.00;100828.53;5013970;28;20061;-55
2023/08/08 06:57:33;;;;;;;1.00;0.30;;;;;;;17.37;100.00;100832.50;5012109;28;20499;-55
2023/08/08 06:59:59;;;;;;;1.17;0.30;;;;;;;17.52;100.00;100824.88;5012015;28;20036;-55
2023/08/08 07:02:24;;;;;;;1.95;0.30;;;;;;;17.61;100.00;100818.16;5013744;28;20049;-55
2023/08/08 07:04:50;;;;;;;0.57;0.38;;;;;;;17.66;100.00;100820.16;5015826;28;20033;-53
2023/08/08 07:07:15;;;;;;;3.15;0.50;;;;;;;17.56;100.00;100831.44;5012637;28;20140;-47
2023/08/08 07:09:41;;;;;;;0.20;0.00;;;;;;;17.57;100.00;100826.88;5014886;28;20120;-53
2023/08/08 07:12:07;;;;;;;4.40;0.20;;;;;;;17.37;100.00;100822.63;5011614;28;20033;-55
2023/08/08 07:14:32;;;;;;;6.03;0.43;;;;;;;17.40;100.00;100821.34;5017224;28;20539;-59
2023/08/08 07:16:58;;;;;;;1.55;0.32;;;;;;;17.57;100.00;100821.50;5012517;28;20044;-59
2023/08/08 07:19:23;;;;;;;1.63;0.43;;;;;;;17.71;100.00;100817.59;5012523;28;20096;-57
2023/08/08 07:21:49;;;;;;;1.75;0.17;;;;;;;17.88;100.00;100828.50;5012492;28;20030;-59
2023/08/08 07:24:14;;;;;;;0.82;0.13;;;;;;;18.00;100.00;100815.91;5011312;28;20523;-58
2023/08/08 07:26:39;;;;;;;3.05;0.25;;;;;;;18.16;100.00;100827.00;5014890;28;20040;-53
2023/08/08 07:29:08;;;;;;;0.75;0.10;;;;;;;18.25;100.00;100823.75;5027104;28;20667;-56
2023/08/08 07:31:33;;;;;;;3.40;0.20;;;;;;;18.23;100.00;100825.84;5012044;28;20116;-55
2023/08/08 07:33:58;;;;;;;0.90;0.20;;;;;;;18.07;100.00;100819.31;5011532;28;20115;-56
2023/08/08 07:36:24;;;;;;;3.03;0.90;;;;;;;18.15;100.00;100817.31;5011999;28;20513;-55
2023/08/08 07:38:49;;;;;;;0.30;0.17;;;;;;;18.24;100.00;100823.97;5008204;28;20472;-55
2023/08/08 07:41:14;;;;;;;2.13;0.98;;;;;;;18.22;100.00;100823.38;5012225;28;20100;-58
2023/08/08 07:43:40;;;;;;;0.65;0.10;;;;;;;18.20;100.00;100820.97;5006809;28;20676;-57
2023/08/08 07:46:05;;;;;;;0.35;0.20;;;;;;;18.28;100.00;100823.28;5006211;28;20040;-55
2023/08/08 07:48:31;;;;;;;1.85;0.10;;;;;;;18.45;100.00;100806.47;5010949;28;20394;-59
2023/08/08 07:50:56;;;;;;;3.22;0.75;;;;;;;18.55;100.00;100803.19;5016409;28;20033;-57
2023/08/08 07:53:21;;;;;;;0.32;0.17;;;;;;;18.65;100.00;100814.16;5010252;28;20033;-57
2023/08/08 07:55:46;;;;;;;1.75;0.50;;;;;;;18.74;100.00;100805.50;5013063;28;20234;-55
2023/08/08 07:58:12;;;;;;;0.75;0.20;;;;;;;18.75;100.00;100806.34;5014737;28;20033;-54
2023/08/08 08:00:38;;;;;;;3.20;0.10;;;;;;;18.69;100.00;100812.59;5011444;28;20049;-57
2023/08/08 08:03:04;;;;;;;2.33;0.28;;;;;;;18.71;100.00;100814.00;5008304;28;20050;-49
2023/08/08 08:05:29;;;;;;;2.22;0.88;;;;;;;18.73;100.00;100813.78;5012644;28;20038;-54
2023/08/08 08:07:54;;;;;;;0.55;0.22;;;;;;;18.79;100.00;100806.66;5013292;28;20033;-56
2023/08/08 08:10:20;;;;;;;1.50;0.10;;;;;;;18.79;100.00;100804.78;5012310;28;20053;-57
2023/08/08 08:12:45;;;;;;;2.47;0.90;;;;;;;18.91;100.00;100802.88;5012166;28;20398;-57
2023/08/08 08:15:11;;;;;;;1.00;0.30;;;;;;;18.98;100.00;100804.63;5013475;28;20033;-55
2023/08/08 08:17:36;;;;;;;1.65;0.10;;;;;;;19.01;100.00;100801.47;5017450;28;20059;-54
2023/08/08 08:20:05;;;;;;;1.75;0.10;;;;;;;19.06;100.00;100801.56;5017924;28;20513;-59
2023/08/08 08:22:31;;;;;;;0.65;0.10;;;;;;;19.01;100.00;100815.72;5014901;28;20064;-56
2023/08/08 08:24:57;;;;;;;0.35;0.28;;;;;;;18.98;100.00;100804.63;5016072;28;20042;-56
2023/08/08 08:27:22;;;;;;;1.13;0.32;;;;;;;18.85;100.00;100801.16;5014515;28;20064;-56
2023/08/08 08:29:48;;;;;;;2.88;0.47;;;;;;;18.93;100.00;100803.47;5015640;28;20044;-58
2023/08/08 08:32:13;;;;;;;3.72;0.10;;;;;;;19.05;100.00;100810.66;5012452;28;20189;-57
2023/08/08 08:34:38;;;;;;;0.22;0.20;;;;;;;19.00;100.00;100818.63;5026698;28;20063;-59
2023/08/08 08:37:04;;;;;;;0.40;0.10;;;;;;;18.86;100.00;100816.22;5015785;28;20025;-65
2023/08/08 08:39:29;;;;;;;0.22;0.22;;;;;;;18.62;100.00;100815.44;5013512;28;20038;-58
2023/08/08 08:42:01;;;;;;;0.30;0.13;;;;;;;18.52;100.00;100815.22;5017376;28;20458;-61
2023/08/08 08:44:29;;;;;;;0.38;0.00;;;;;;;18.51;100.00;100817.09;5017784;28;20033;-59
2023/08/08 08:46:57;;;;;;;0.08;0.00;;;;;;;18.55;100.00;100817.41;5015516;28;20026;-56
2023/08/08 08:49:24;;;;;;;0.20;0.15;;;;;;;18.62;100.00;100817.31;5021715;28;20077;-61
2023/08/08 08:51:49;;;;;;;4.47;0.10;;;;;;;18.82;100.00;100816.94;5007578;28;20137;-58
2023/08/08 08:54:15;;;;;;;0.70;0.00;;;;;;;18.87;100.00;100814.34;5008480;28;20040;-60
2023/08/08 08:56:41;;;;;;;0.38;0.17;;;;;;;18.89;100.00;100807.69;5012557;28;20033;-57
2023/08/08 08:59:07;;;;;;;3.05;0.17;;;;;;;18.92;100.00;100807.22;5016843;28;20044;-60
2023/08/08 09:01:33;;;;;;;0.40;0.10;;;;;;;18.81;100.00;100807.25;5010967;28;20498;-63
2023/08/08 09:03:59;;;;;;;0.15;0.10;;;;;;;18.53;100.00;100812.31;5009914;28;20499;-58
2023/08/08 09:06:24;;;;;;;0.15;0.00;;;;;;;18.69;100.00;100809.91;5002822;28;20030;-56
2023/08/08 09:08:50;;;;;;;1.10;0.05;;;;;;;18.83;100.00;100800.59;5004036;28;20025;-59
2023/08/08 09:11:15;;;;;;;0.15;0.15;;;;;;;18.96;100.00;100800.31;5006273;28;20498;-59
2023/08/08 09:13:40;;;;;;;0.00;0.00;;;;;;;19.18;100.00;100799.66;5007221;28;20042;-58
2023/08/08 09:16:08;;;;;;;0.65;0.00;;;;;;;19.24;100.00;100795.19;5005057;28;20030;-57
2023/08/08 09:18:33;;;;;;;0.35;0.00;;;;;;;19.21;100.00;100795.69;5008635;28;20416;-55
2023/08/08 09:20:59;;;;;;;3.00;0.22;;;;;;;19.21;100.00;100803.75;5006866;28;20053;-53
2023/08/08 09:23:25;;;;;;;0.15;0.00;;;;;;;19.23;100.00;100804.28;5003945;28;20416;-55
2023/08/08 09:25:50;;;;;;;0.30;0.10;;;;;;;19.16;100.00;100807.13;5010955;28;20092;-59
2023/08/08 09:28:16;;;;;;;0.28;0.28;;;;;;;19.07;100.00;100803.19;5006602;28;20037;-56
2023/08/08 09:30:42;;;;;;;0.00;0.00;;;;;;;18.87;100.00;100801.75;5009109;28;20064;-58
2023/08/08 09:33:08;;;;;;;0.00;0.00;;;;;;;19.08;100.00;100799.47;5005622;28;20230;-59
2023/08/08 09:35:34;;;;;;;0.60;0.57;;;;;;;19.21;100.00;100804.56;5001949;28;20030;-56
2023/08/08 09:37:59;;;;;;;1.77;0.00;;;;;;;19.06;100.00;100802.38;5006953;28;20112;-57
2023/08/08 09:40:25;;;;;;;0.10;0.00;;;;;;;19.06;100.00;100804.25;5008033;28;20022;-57
2023/08/08 09:42:53;;;;;;;0.20;0.10;;;;;;;18.83;100.00;100795.22;4997774;28;20582;-59
2023/08/08 09:45:20;;;;;;;0.63;0.10;;;;;;;18.73;100.00;100795.78;5005068;28;20134;-59
2023/08/08 09:47:46;;;;;;;0.10;0.00;;;;;;;18.66;100.00;100802.34;5007605;28;20065;-58
2023/08/08 09:50:11;;;;;;;0.88;0.05;;;;;;;18.48;100.00;100790.72;5002267;28;20120;-58
2023/08/08 09:52:39;;;;;;;0.13;0.00;;;;;;;18.60;100.00;100803.28;5005541;28;20523;-50
2023/08/08 09:55:05;;;;;;;0.10;0.10;;;;;;;18.85;100.00;100793.09;5013882;28;20391;-53
2023/08/08 09:57:32;;;;;;;1.10;0.25;;;;;;;18.80;100.00;100778.75;5012717;28;20506;-57
2023/08/08 09:59:58;;;;;;;1.08;0.32;;;;;;;18.78;100.00;100773.63;5014793;28;20057;-55
2023/08/08 10:02:24;;;;;;;0.95;0.00;;;;;;;18.78;100.00;100778.19;5013152;28;20125;-55
2023/08/08 10:04:50;;;;;;;0.00;0.00;;;;;;;18.84;100.00;100769.16;5017091;28;20025;-52
2023/08/08 10:07:16;;;;;;;0.15;0.00;;;;;;;18.94;100.00;100772.03;5016155;28;20087;-57
2023/08/08 10:09:41;;;;;;;1.10;0.38;;;;;;;18.97;100.00;100779.63;5012503;28;20080;-53
2023/08/08 10:12:08;;;;;;;1.20;0.00;;;;;;;18.92;100.00;100776.84;5009644;28;20034;-55
2023/08/08 10:14:38;;;;;;;1.15;0.00;;;;;;;18.99;100.00;100768.66;5014716;28;21064;-52
2023/08/08 10:17:04;;;;;;;0.30;0.00;;;;;;;19.21;100.00;100764.22;5014232;28;20608;-54
2023/08/08 10:19:30;;;;;;;0.17;0.05;;;;;;;19.41;100.00;100755.69;5014939;28;20431;-47
2023/08/08 10:22:03;;;;;;;0.00;0.00;;;;;;;19.46;100.00;100763.03;5010019;28;20029;-53
2023/08/08 10:24:35;;;;;;;0.52;0.00;;;;;;;19.26;100.00;100763.47;5015061;28;20061;-53
2023/08/08 10:27:01;;;;;;;0.00;0.00;;;;;;;19.29;100.00;100760.34;5012312;28;20033;-54
2023/08/08 10:29:28;;;;;;;0.00;0.00;;;;;;;19.38;100.00;100757.00;5016325;28;20033;-54
2023/08/08 10:32:05;;;;;;;0.10;0.00;;;;;;;19.38;100.00;100759.69;5009554;28;20052;-53
2023/08/08 10:34:41;;;;;;;0.08;0.03;;;;;;;19.37;100.00;100752.69;5014606;28;20116;-51
2023/08/08 10:37:20;;;;;;;0.00;0.00;;;;;;;19.32;100.00;100752.59;5015470;28;20029;-50
2023/08/08 10:40:07;;;;;;;0.00;0.00;;;;;;;19.60;100.00;100750.91;5011443;28;20040;-51
2023/08/08 10:42:42;;;;;;;0.10;0.10;;;;;;;19.60;100.00;100748.22;5012446;28;20075;-53
2023/08/08 10:45:12;;;;;;;0.47;0.10;;;;;;;19.64;100.00;100743.16;5011991;28;20033;-50
2023/08/08 10:47:37;;;;;;;0.10;0.00;;;;;;;19.67;100.00;100727.41;5012061;28;20045;-54
2023/08/08 10:50:07;;;;;;;0.30;0.00;;;;;;;19.72;100.00;100734.72;5012479;28;20029;-51
2023/08/08 10:52:37;;;;;;;0.00;0.00;;;;;;;19.73;100.00;100744.41;5014496;28;20036;-53
2023/08/08 10:55:03;;;;;;;0.98;0.00;;;;;;;19.78;100.00;100729.16;5009858;28;20029;-57
2023/08/08 10:57:30;;;;;;;0.30;0.10;;;;;;;19.88;100.00;100736.59;5014407;28;20036;-53
2023/08/08 10:59:55;;;;;;;0.50;0.30;;;;;;;19.86;100.00;100730.63;5010461;28;20570;-53
2023/08/08 11:02:21;;;;;;;0.40;0.00;;;;;;;19.91;100.00;100724.50;5012995;28;20126;-52
2023/08/08 11:04:49;;;;;;;0.30;0.10;;;;;;;20.01;100.00;100736.25;5012727;28;20394;-55
2023/08/08 11:07:15;;;;;;;0.10;0.10;;;;;;;20.15;100.00;100733.19;5014218;28;20061;-54
2023/08/08 11:09:42;;;;;;;0.20;0.03;;;;;;;20.20;100.00;100728.69;5016130;28;20211;-54
2023/08/08 11:12:14;;;;;;;1.60;0.10;;;;;;;20.18;100.00;100724.59;5014859;28;20041;-51